Time;durP1;ratioP1;P1;durP2;ratioP2;P2;SDS_P1;SDS_P2;PMS_P1;PMS_P2;Temp;Humidity;BMP_temperature;BMP_pressure;BME280_temperature;BME280_humidity;BME280_pressure;Samples;Min_cycle;Max_cycle;Signal;HPM_P1;HPM_P2
2023/03/26 00:02:07;;;;;;;4.20;1.40;;;;;;;16.79;45.30;96412.69;5040550;28;20466;-33
2023/03/26 00:04:33;;;;;;;5.72;1.35;;;;;;;16.86;45.16;96411.56;5034045;28;20037;-34
2023/03/26 00:06:58;;;;;;;4.15;1.40;;;;;;;16.60;46.21;96411.25;5040131;28;20215;-33
2023/03/26 00:09:24;;;;;;;6.10;1.40;;;;;;;16.74;45.65;96407.84;5040420;28;20028;-33
2023/03/26 00:11:49;;;;;;;3.92;1.10;;;;;;;16.56;45.77;96407.97;5040704;28;20020;-32
2023/03/26 00:14:16;;;;;;;3.40;1.33;;;;;;;16.73;45.49;96405.56;5045758;28;20043;-32
2023/03/26 00:16:42;;;;;;;6.10;2.15;;;;;;;16.56;45.91;96402.47;5033897;28;20075;-32
2023/03/26 00:19:09;;;;;;;5.50;1.67;;;;;;;16.88;45.51;96401.66;5040924;28;20044;-33
2023/03/26 00:21:36;;;;;;;6.50;1.60;;;;;;;16.67;45.47;96400.00;5040489;28;20052;-33
2023/03/26 00:24:09;;;;;;;8.07;1.85;;;;;;;16.67;45.46;96389.03;5042674;28;20037;-32
2023/03/26 00:26:36;;;;;;;;;;;;;;;16.66;45.74;96393.00;5043947;28;20017;-34
2023/03/26 00:29:03;;;;;;;6.60;1.85;;;;;;;16.68;45.80;96387.06;5041071;28;19916;-32
2023/03/26 00:31:29;;;;;;;2.60;1.50;;;;;;;16.54;46.01;96383.03;5037802;28;20100;-33
2023/03/26 00:33:54;;;;;;;7.63;1.80;;;;;;;16.56;45.99;96379.81;5043007;28;20416;-32
2023/03/26 00:36:21;;;;;;;5.18;1.30;;;;;;;16.57;45.50;96382.06;5036271;28;20024;-34
2023/03/26 00:38:47;;;;;;;3.80;1.40;;;;;;;16.40;45.62;96383.72;5043469;28;20104;-34
2023/03/26 00:41:21;;;;;;;5.95;2.42;;;;;;;16.61;45.19;96385.41;5035182;28;20104;-32
2023/03/26 00:43:48;;;;;;;7.07;1.48;;;;;;;16.57;44.65;96384.06;5043687;28;20017;-33
2023/03/26 00:46:16;;;;;;;7.15;2.00;;;;;;;16.56;44.98;96399.75;5035324;28;20432;-32
2023/03/26 00:48:41;;;;;;;6.55;1.65;;;;;;;16.53;45.07;96386.97;5043690;28;20091;-32
2023/03/26 00:51:14;;;;;;;5.32;1.40;;;;;;;16.59;44.86;96381.59;5043299;28;20025;-32
2023/03/26 00:53:40;;;;;;;5.47;1.63;;;;;;;16.60;44.66;96383.88;5040392;28;20053;-32
2023/03/26 00:56:08;;;;;;;4.47;1.48;;;;;;;16.63;45.03;96376.75;5046423;28;20282;-33
2023/03/26 00:58:34;;;;;;;6.22;1.77;;;;;;;16.39;45.38;96382.19;5040960;28;20376;-33
2023/03/26 01:01:02;;;;;;;6.65;1.63;;;;;;;16.48;45.52;96384.88;5036732;28;20027;-32
2023/03/26 01:03:32;;;;;;;5.85;2.47;;;;;;;16.52;45.32;96380.00;5042279;28;20387;-32
2023/03/26 01:06:06;;;;;;;4.95;1.52;;;;;;;16.53;45.35;96376.78;5043561;28;20021;-34
2023/03/26 01:08:47;;;;;;;6.47;1.50;;;;;;;16.60;44.91;96377.66;5042237;28;20071;-32
2023/03/26 01:11:16;;;;;;;2.85;1.40;;;;;;;16.48;45.26;96373.94;5038044;28;20404;-32
2023/03/26 01:13:56;;;;;;;3.40;1.33;;;;;;;16.58;44.77;96371.88;5040443;28;20057;-33
2023/03/26 01:16:27;;;;;;;7.63;2.10;;;;;;;16.62;44.92;96376.00;5043406;28;20029;-32
2023/03/26 01:18:57;;;;;;;8.18;1.70;;;;;;;16.37;45.06;96377.19;5041659;28;20382;-32
2023/03/26 01:21:27;;;;;;;6.00;1.70;;;;;;;16.33;45.42;96375.84;5043124;28;20477;-32
2023/03/26 01:23:56;;;;;;;4.55;1.70;;;;;;;16.43;45.24;96369.88;5036729;28;20022;-32
2023/03/26 01:26:51;;;;;;;4.65;1.40;;;;;;;16.40;45.38;96376.25;5043354;28;20021;-32
2023/03/26 01:29:38;;;;;;;3.28;1.42;;;;;;;16.57;45.24;96368.38;5038639;28;20024;-32
2023/03/26 01:32:31;;;;;;;7.72;1.90;;;;;;;16.56;45.50;96355.19;5044131;28;20047;-32
2023/03/26 01:35:02;;;;;;;5.43;1.65;;;;;;;16.36;46.11;96350.28;5043381;28;20440;-33
2023/03/26 01:37:52;;;;;;;4.03;1.30;;;;;;;16.43;46.12;96350.72;5043261;28;20022;-32
2023/03/26 01:40:25;;;;;;;5.20;1.60;;;;;;;16.61;45.90;96352.53;5043723;28;20036;-32
2023/03/26 01:43:25;;;;;;;6.57;1.45;;;;;;;16.43;46.18;96352.69;5042046;28;20020;-32
2023/03/26 01:45:51;;;;;;;4.88;1.90;;;;;;;16.32;46.51;96341.50;5041784;28;20029;-32
2023/03/26 01:48:17;;;;;;;4.55;1.60;;;;;;;16.24;46.59;96338.34;5043173;28;20050;-33
2023/03/26 01:50:43;;;;;;;5.78;2.45;;;;;;;16.31;46.59;96350.94;5042348;28;20408;-32
2023/03/26 01:53:11;;;;;;;8.82;1.92;;;;;;;16.22;46.69;96348.22;5043109;28;20117;-32
2023/03/26 01:55:57;;;;;;;5.43;1.60;;;;;;;16.53;46.42;96334.97;5038926;28;20028;-33
2023/03/26 01:58:30;;;;;;;5.88;1.90;;;;;;;16.40;46.13;96326.25;5044659;28;20068;-33
2023/03/26 02:01:18;;;;;;;5.00;2.03;;;;;;;16.37;46.31;96324.44;5040511;28;20045;-32
2023/03/26 02:03:54;;;;;;;6.10;1.50;;;;;;;16.41;46.62;96316.81;5042857;28;20068;-33
2023/03/26 02:06:33;;;;;;;5.30;1.50;;;;;;;16.57;46.46;96327.31;5042560;28;20500;-33
2023/03/26 02:09:04;;;;;;;4.05;1.80;;;;;;;16.61;46.96;96319.69;5043085;28;20029;-32
2023/03/26 02:11:30;;;;;;;5.28;1.73;;;;;;;16.40;47.56;96326.25;5042848;28;20569;-32
2023/03/26 02:13:56;;;;;;;7.25;2.15;;;;;;;16.38;47.91;96328.69;5042613;28;20100;-33
2023/03/26 02:16:22;;;;;;;4.63;2.20;;;;;;;16.67;47.39;96328.81;5043006;28;20029;-33
2023/03/26 02:18:50;;;;;;;9.40;2.08;;;;;;;16.57;47.66;96321.84;5042694;28;20531;-33
2023/03/26 02:21:24;;;;;;;6.35;2.55;;;;;;;16.32;48.42;96322.34;5043188;28;20075;-33
2023/03/26 02:24:01;;;;;;;6.15;2.13;;;;;;;16.22;48.73;96320.88;5042969;28;20032;-32
2023/03/26 02:26:28;;;;;;;6.10;2.90;;;;;;;16.37;48.71;96314.25;5042281;28;20013;-33
2023/03/26 02:28:53;;;;;;;6.00;2.55;;;;;;;16.24;49.53;96318.44;5042781;28;20025;-32
2023/03/26 02:31:18;;;;;;;8.90;2.30;;;;;;;16.31;49.32;96307.16;5042593;28;20013;-32
2023/03/26 02:33:46;;;;;;;7.53;2.35;;;;;;;16.39;48.85;96308.31;5042410;28;20159;-32
2023/03/26 02:36:13;;;;;;;8.15;2.47;;;;;;;16.32;49.25;96303.94;5036849;28;20037;-32
2023/03/26 02:38:40;;;;;;;9.23;2.85;;;;;;;16.20;49.67;96307.66;5045752;28;20357;-33
2023/03/26 02:41:06;;;;;;;12.57;3.67;;;;;;;16.33;50.01;96310.91;5035810;28;20385;-32
2023/03/26 02:43:31;;;;;;;9.63;3.30;;;;;;;16.38;49.93;96306.78;5037456;28;20021;-32
2023/03/26 02:45:57;;;;;;;9.65;3.13;;;;;;;16.26;50.57;96303.06;5045027;28;20017;-32
2023/03/26 02:48:22;;;;;;;7.18;2.97;;;;;;;16.35;50.68;96302.25;5035219;28;20049;-33
2023/03/26 02:50:52;;;;;;;9.65;3.72;;;;;;;16.55;50.50;96294.19;5042645;28;20136;-34
2023/03/26 02:53:20;;;;;;;7.00;2.90;;;;;;;16.39;50.71;96302.81;5050705;28;20381;-32
2023/03/26 02:55:46;;;;;;;9.60;3.88;;;;;;;16.30;51.22;96311.88;5045329;28;20021;-32
2023/03/26 02:58:16;;;;;;;13.48;3.55;;;;;;;16.41;51.09;96300.38;5044724;28;20033;-33
2023/03/26 03:00:45;;;;;;;8.40;3.33;;;;;;;16.49;50.72;96304.28;5042200;28;20022;-32
2023/03/26 03:03:11;;;;;;;10.25;3.35;;;;;;;16.32;50.94;96294.97;5041789;28;20440;-34
2023/03/26 03:05:42;;;;;;;7.15;3.53;;;;;;;16.10;52.16;96285.06;5041799;28;20116;-32
2023/03/26 03:08:08;;;;;;;10.77;4.20;;;;;;;16.41;51.39;96283.97;5039507;28;20099;-32
2023/03/26 03:10:36;;;;;;;10.82;4.40;;;;;;;16.39;51.64;96284.44;5043778;28;20064;-32
2023/03/26 03:13:04;;;;;;;17.05;4.13;;;;;;;16.41;51.63;96290.19;5041529;28;20021;-32
2023/03/26 03:15:30;;;;;;;6.93;3.75;;;;;;;16.46;51.78;96280.56;5041328;28;20024;-33
2023/03/26 03:17:55;;;;;;;10.43;4.35;;;;;;;16.44;52.12;96283.03;5035359;28;20103;-32
2023/03/26 03:20:21;;;;;;;8.32;4.30;;;;;;;16.63;51.28;96289.88;5044673;28;20432;-32
2023/03/26 03:22:46;;;;;;;7.65;4.03;;;;;;;16.50;51.57;96303.03;5048442;28;20025;-32
2023/03/26 03:25:13;;;;;;;10.68;4.03;;;;;;;16.42;51.81;96290.94;5036995;28;20099;-32
2023/03/26 03:27:40;;;;;;;12.90;3.53;;;;;;;16.41;51.62;96284.72;5037886;28;20079;-32
2023/03/26 03:30:06;;;;;;;11.10;3.90;;;;;;;16.26;52.49;96288.63;5043526;28;20742;-32
2023/03/26 03:32:33;;;;;;;10.10;3.58;;;;;;;16.29;52.29;96284.97;5039274;28;20021;-32
2023/03/26 03:34:58;;;;;;;5.72;3.38;;;;;;;16.32;52.13;96278.56;5041543;28;20086;-33
2023/03/26 03:37:25;;;;;;;10.57;3.97;;;;;;;16.43;52.18;96273.31;5041137;28;20458;-32
2023/03/26 03:39:50;;;;;;;11.32;4.05;;;;;;;16.25;52.42;96268.72;5041298;28;20021;-32
2023/03/26 03:42:15;;;;;;;9.75;4.15;;;;;;;16.31;52.34;96258.66;5042190;28;20020;-32
2023/03/26 03:44:41;;;;;;;10.77;4.13;;;;;;;16.08;53.11;96257.44;5044428;28;20013;-33
2023/03/26 03:47:09;;;;;;;10.50;3.92;;;;;;;16.20;52.93;96255.66;5036596;28;20351;-33
2023/03/26 03:49:34;;;;;;;9.23;3.92;;;;;;;16.17;52.96;96246.44;5043526;28;20041;-32
2023/03/26 03:52:00;;;;;;;14.00;4.82;;;;;;;16.26;52.76;96255.78;5043720;28;20039;-32
2023/03/26 03:54:27;;;;;;;10.80;4.18;;;;;;;16.27;53.08;96262.78;5036097;28;20026;-33
2023/03/26 03:56:52;;;;;;;10.50;4.63;;;;;;;16.30;52.84;96256.38;5039560;28;20014;-32
2023/03/26 03:59:18;;;;;;;7.00;4.00;;;;;;;16.38;52.59;96252.81;5048033;28;20044;-32
2023/03/26 04:01:45;;;;;;;11.57;4.72;;;;;;;16.25;53.13;96265.22;5041497;28;20025;-33
2023/03/26 04:04:11;;;;;;;9.00;4.00;;;;;;;16.29;52.94;96255.63;5046974;28;20021;-34
2023/03/26 04:06:36;;;;;;;9.32;4.22;;;;;;;16.15;53.69;96265.28;5041927;28;20029;-32
2023/03/26 04:09:02;;;;;;;10.43;4.18;;;;;;;16.04;54.01;96258.84;5040784;28;20405;-32
2023/03/26 04:11:27;;;;;;;8.80;3.70;;;;;;;16.38;53.31;96271.22;5040667;28;20029;-32
2023/03/26 04:13:52;;;;;;;11.18;4.38;;;;;;;16.09;54.17;96267.16;5036214;28;20021;-33
2023/03/26 04:16:18;;;;;;;11.13;4.10;;;;;;;16.20;53.94;96271.31;5043437;28;20017;-33
2023/03/26 04:18:46;;;;;;;10.23;3.53;;;;;;;16.31;53.72;96263.38;5042452;28;20083;-32
2023/03/26 04:21:14;;;;;;;7.13;3.72;;;;;;;16.31;53.73;96274.31;5043379;28;20024;-32
2023/03/26 04:23:41;;;;;;;6.80;3.10;;;;;;;16.42;53.52;96280.75;5043727;28;20029;-33
2023/03/26 04:26:12;;;;;;;10.70;4.25;;;;;;;16.22;54.16;96274.34;5041516;28;20071;-32
2023/03/26 04:28:52;;;;;;;6.93;3.38;;;;;;;16.25;54.08;96281.63;5040574;28;20457;-32
2023/03/26 04:31:23;;;;;;;7.35;3.63;;;;;;;16.37;53.45;96275.16;5043175;28;20017;-32
2023/03/26 04:33:54;;;;;;;8.82;3.55;;;;;;;16.28;53.99;96280.72;5044098;28;20072;-32
2023/03/26 04:36:25;;;;;;;6.72;3.28;;;;;;;16.42;53.88;96285.47;5047700;28;20017;-32
2023/03/26 04:38:52;;;;;;;13.18;4.03;;;;;;;16.39;53.79;96278.19;5039620;28;20025;-32
2023/03/26 04:41:19;;;;;;;8.15;3.63;;;;;;;16.44;53.67;96283.03;5035223;28;20033;-32
2023/03/26 04:43:49;;;;;;;8.60;3.75;;;;;;;16.34;54.20;96281.56;5043627;28;20025;-33
2023/03/26 04:46:20;;;;;;;9.60;4.13;;;;;;;16.51;53.71;96279.94;5034892;28;20045;-32
2023/03/26 04:48:49;;;;;;;7.15;3.22;;;;;;;16.30;54.26;96284.50;5045997;28;20508;-33
2023/03/26 04:51:18;;;;;;;10.43;4.15;;;;;;;16.27;54.40;96268.25;5039822;28;20480;-32
2023/03/26 04:53:52;;;;;;;10.27;3.78;;;;;;;16.26;54.40;96270.22;5039027;28;20021;-33
2023/03/26 04:56:42;;;;;;;7.35;3.15;;;;;;;15.96;55.47;96272.09;5040598;28;20112;-33
2023/03/26 04:59:12;;;;;;;10.70;5.28;;;;;;;16.13;55.22;96275.94;5046118;28;20064;-32
2023/03/26 05:01:39;;;;;;;7.18;3.38;;;;;;;16.26;54.69;96277.69;5040292;28;20029;-34
2023/03/26 05:04:04;;;;;;;7.43;3.10;;;;;;;16.28;54.55;96275.25;5035288;28;20021;-33
2023/03/26 05:06:33;;;;;;;9.35;3.70;;;;;;;16.08;55.23;96273.84;5044323;28;20077;-32
2023/03/26 05:09:00;;;;;;;6.40;3.85;;;;;;;16.09;55.29;96264.41;5042555;28;20104;-32
2023/03/26 05:11:26;;;;;;;5.95;3.40;;;;;;;16.14;54.87;96277.47;5043700;28;20029;-33
2023/03/26 05:13:51;;;;;;;8.82;3.88;;;;;;;16.30;54.65;96276.28;5045484;28;20044;-32
2023/03/26 05:16:17;;;;;;;8.68;3.75;;;;;;;16.24;54.72;96283.63;5041783;28;20029;-32
2023/03/26 05:18:42;;;;;;;10.68;3.70;;;;;;;16.26;55.03;96283.16;5043861;28;20029;-33
2023/03/26 05:21:08;;;;;;;11.43;3.75;;;;;;;16.04;55.70;96272.53;5043780;28;20067;-32
2023/03/26 05:23:33;;;;;;;10.00;3.80;;;;;;;16.11;55.55;96278.38;5046221;28;20021;-32
2023/03/26 05:25:59;;;;;;;9.13;3.92;;;;;;;16.21;55.49;96273.59;5045229;28;20018;-32
2023/03/26 05:28:25;;;;;;;10.52;4.20;;;;;;;16.23;55.31;96282.09;5046577;28;20048;-33
2023/03/26 05:30:52;;;;;;;9.95;3.42;;;;;;;16.12;55.74;96288.09;5046561;28;20031;-32
2023/03/26 05:33:19;;;;;;;9.35;4.55;;;;;;;16.01;56.01;96284.38;5046291;28;20078;-32
2023/03/26 05:35:45;;;;;;;11.02;3.78;;;;;;;16.14;55.68;96293.88;5040719;28;20026;-33
2023/03/26 05:38:11;;;;;;;11.95;4.25;;;;;;;16.10;56.01;96287.81;5050959;28;20029;-33
2023/03/26 05:40:36;;;;;;;7.05;3.80;;;;;;;15.97;56.25;96284.56;5036227;28;20025;-32
2023/03/26 05:43:02;;;;;;;10.45;4.22;;;;;;;16.04;56.26;96283.47;5043248;28;20027;-32
2023/03/26 05:45:28;;;;;;;12.48;3.95;;;;;;;16.08;56.02;96270.34;5043515;28;20032;-32
2023/03/26 05:47:55;;;;;;;9.07;4.57;;;;;;;16.22;55.44;96274.34;5042852;28;20045;-32
2023/03/26 05:50:20;;;;;;;10.32;4.03;;;;;;;16.08;55.66;96273.84;5044233;28;20361;-32
2023/03/26 05:52:46;;;;;;;11.40;4.38;;;;;;;16.03;55.99;96271.75;5046757;28;20017;-32
2023/03/26 05:55:12;;;;;;;8.65;4.05;;;;;;;16.08;55.51;96268.38;5046060;28;20384;-32
2023/03/26 05:57:38;;;;;;;14.55;4.13;;;;;;;16.06;55.61;96273.56;5045247;28;20477;-32
2023/03/26 06:00:07;;;;;;;13.50;4.13;;;;;;;16.04;55.56;96278.75;5046142;28;20017;-33
2023/03/26 06:02:33;;;;;;;11.40;4.13;;;;;;;16.20;54.84;96276.81;5037802;28;20052;-32
2023/03/26 06:05:00;;;;;;;11.38;4.68;;;;;;;15.87;55.71;96280.34;5049658;28;20031;-32
2023/03/26 06:07:25;;;;;;;10.82;4.68;;;;;;;16.09;54.96;96278.09;5043129;28;20048;-34
2023/03/26 06:09:52;;;;;;;12.95;5.15;;;;;;;15.96;55.17;96280.28;5050042;28;20017;-32
2023/03/26 06:12:17;;;;;;;8.93;3.85;;;;;;;15.97;55.36;96279.06;5043049;28;20481;-33
2023/03/26 06:14:43;;;;;;;11.13;4.10;;;;;;;16.08;54.87;96279.31;5041909;28;20096;-32
2023/03/26 06:17:09;;;;;;;9.57;4.10;;;;;;;16.24;54.61;96286.34;5046339;28;20028;-32
2023/03/26 06:19:35;;;;;;;9.02;4.43;;;;;;;16.10;55.27;96285.06;5039245;28;20385;-32
2023/03/26 06:22:00;;;;;;;12.45;3.80;;;;;;;16.27;55.00;96287.41;5042565;28;20017;-32
2023/03/26 06:24:26;;;;;;;11.82;4.65;;;;;;;16.27;54.92;96284.66;5042900;28;20030;-32
2023/03/26 06:26:51;;;;;;;8.30;4.15;;;;;;;16.29;54.55;96288.47;5042379;28;20021;-32
2023/03/26 06:29:17;;;;;;;6.75;3.65;;;;;;;16.31;54.11;96279.78;5038430;28;20480;-32
2023/03/26 06:31:42;;;;;;;10.43;4.10;;;;;;;16.35;53.53;96272.13;5039297;28;20351;-32
2023/03/26 06:34:08;;;;;;;11.32;3.97;;;;;;;16.20;54.16;96274.06;5043528;28;20025;-32
2023/03/26 06:36:34;;;;;;;8.68;3.63;;;;;;;16.35;53.69;96270.16;5048039;28;20585;-32
2023/03/26 06:38:59;;;;;;;6.03;3.50;;;;;;;16.06;54.36;96270.84;5035006;28;20021;-33
2023/03/26 06:41:25;;;;;;;13.05;4.53;;;;;;;16.31;53.65;96274.31;5042678;28;20465;-33
2023/03/26 06:43:50;;;;;;;12.13;4.43;;;;;;;16.36;53.31;96273.66;5042510;28;20535;-32
2023/03/26 06:46:16;;;;;;;10.30;4.07;;;;;;;16.19;53.53;96269.84;5035845;28;20020;-32
2023/03/26 06:48:41;;;;;;;9.45;4.03;;;;;;;16.37;52.91;96266.97;5040954;28;20037;-32
2023/03/26 06:51:08;;;;;;;7.55;3.78;;;;;;;16.10;53.46;96260.47;5033857;28;20075;-33
2023/03/26 06:53:34;;;;;;;11.13;3.95;;;;;;;16.14;53.19;96265.75;5035130;28;20029;-32
2023/03/26 06:56:00;;;;;;;11.05;3.85;;;;;;;16.01;53.26;96266.00;5040620;28;20465;-33
2023/03/26 06:58:25;;;;;;;11.55;4.68;;;;;;;16.11;53.53;96259.22;5036666;28;20029;-32
2023/03/26 07:00:54;;;;;;;9.65;5.13;;;;;;;16.11;53.37;96267.44;5045423;28;20021;-33
2023/03/26 07:03:20;;;;;;;12.95;6.75;;;;;;;15.97;54.03;96259.94;5044894;28;20029;-32
2023/03/26 07:05:46;;;;;;;18.70;8.30;;;;;;;16.06;53.97;96262.63;5041156;28;20021;-32
2023/03/26 07:08:11;;;;;;;17.90;8.40;;;;;;;16.22;53.44;96257.94;5042687;28;20060;-32
2023/03/26 07:10:37;;;;;;;14.63;7.65;;;;;;;16.32;53.11;96251.19;5042116;28;20025;-32
2023/03/26 07:13:02;;;;;;;15.35;6.70;;;;;;;16.06;53.89;96253.66;5037864;28;20461;-32
2023/03/26 07:15:28;;;;;;;12.52;5.60;;;;;;;16.12;53.71;96249.81;5049400;28;20017;-33
2023/03/26 07:17:53;;;;;;;13.27;5.72;;;;;;;16.31;53.30;96247.69;5034670;28;20370;-33
2023/03/26 07:20:19;;;;;;;10.98;5.20;;;;;;;16.06;54.02;96243.47;5039121;28;20583;-32
2023/03/26 07:22:45;;;;;;;11.73;4.70;;;;;;;16.49;52.86;96246.78;5044483;28;20373;-34
2023/03/26 07:25:12;;;;;;;14.25;6.47;;;;;;;16.51;52.69;96238.88;5037330;28;20694;-33
2023/03/26 07:28:04;;;;;;;14.95;6.82;;;;;;;16.49;53.07;96241.31;5037642;28;20025;-34
2023/03/26 07:30:37;;;;;;;14.30;6.43;;;;;;;16.36;53.20;96243.53;5041266;28;20017;-32
2023/03/26 07:33:07;;;;;;;16.95;5.85;;;;;;;16.46;52.88;96239.50;5041470;28;20017;-32
2023/03/26 07:35:42;;;;;;;15.85;7.55;;;;;;;16.48;52.95;96237.06;5034661;28;20373;-33
2023/03/26 07:38:26;;;;;;;24.42;9.43;;;;;;;16.39;52.92;96237.13;5042371;28;20025;-32
2023/03/26 07:41:07;;;;;;;;;;;;;;;16.38;52.79;96238.38;5038206;28;20040;-32
2023/03/26 07:43:48;;;;;;;19.10;8.05;;;;;;;16.50;52.39;96249.06;5037467;28;19951;-32
2023/03/26 07:46:14;;;;;;;21.90;8.55;;;;;;;16.23;52.89;96251.25;5035819;28;20048;-32
2023/03/26 07:48:46;;;;;;;24.50;10.73;;;;;;;16.58;52.17;96248.69;5040071;28;20042;-32
2023/03/26 07:51:12;;;;;;;16.40;8.25;;;;;;;16.65;51.74;96245.63;5041511;28;20056;-32
2023/03/26 07:53:39;;;;;;;17.17;7.47;;;;;;;16.62;52.01;96239.09;5043909;28;20028;-32
2023/03/26 07:56:14;;;;;;;15.63;6.82;;;;;;;16.61;51.57;96240.28;5044029;28;20025;-32
2023/03/26 07:59:18;;;;;;;11.15;5.47;;;;;;;16.58;51.79;96233.00;5043709;28;20099;-32
2023/03/26 08:02:18;;;;;;;10.57;5.18;;;;;;;16.68;51.72;96234.47;5043078;28;20048;-32
2023/03/26 08:04:43;;;;;;;9.95;4.93;;;;;;;16.74;51.74;96238.06;5036180;28;20527;-32
2023/03/26 08:07:22;;;;;;;10.43;4.63;;;;;;;16.60;52.08;96227.06;5038917;28;20165;-32
2023/03/26 08:09:59;;;;;;;10.40;4.07;;;;;;;16.63;52.22;96228.91;5047967;28;20400;-32
2023/03/26 08:12:44;;;;;;;8.35;4.20;;;;;;;16.70;51.81;96231.25;5040192;28;20412;-33
2023/03/26 08:15:31;;;;;;;9.23;3.90;;;;;;;16.73;51.79;96244.00;5037145;28;20098;-32
2023/03/26 08:18:18;;;;;;;8.30;3.63;;;;;;;16.59;51.83;96234.53;5034181;28;20039;-32
2023/03/26 08:20:49;;;;;;;10.48;3.70;;;;;;;16.41;52.10;96243.66;5035844;28;20029;-32
2023/03/26 08:23:27;;;;;;;8.93;4.43;;;;;;;16.47;51.71;96241.00;5037291;28;20025;-33
2023/03/26 08:26:15;;;;;;;103.28;49.00;;;;;;;16.54;51.24;96237.94;5042426;28;20424;-32
2023/03/26 08:28:43;;;;;;;83.90;42.78;;;;;;;16.36;51.89;96238.06;5043615;28;20039;-33
2023/03/26 08:31:12;;;;;;;65.85;33.80;;;;;;;16.49;51.62;96235.84;5041108;28;20017;-34
2023/03/26 08:33:39;;;;;;;49.90;26.60;;;;;;;16.63;51.70;96228.91;5033745;28;20044;-32
2023/03/26 08:36:05;;;;;;;42.35;21.10;;;;;;;16.47;51.85;96221.84;5047206;28;20051;-32
2023/03/26 08:38:31;;;;;;;31.20;16.58;;;;;;;16.59;51.74;96234.53;5041529;28;20033;-33
2023/03/26 08:41:13;;;;;;;23.13;10.70;;;;;;;16.68;51.25;96226.28;5051635;28;20412;-32
2023/03/26 08:44:13;;;;;;;15.65;8.40;;;;;;;16.69;51.82;96235.97;5044483;28;20022;-33
2023/03/26 08:46:56;;;;;;;16.02;7.05;;;;;;;16.56;52.27;96230.00;5044870;28;20017;-32
2023/03/26 08:49:59;;;;;;;11.85;6.07;;;;;;;16.90;51.17;96219.66;5051273;28;20131;-33
2023/03/26 08:52:36;;;;;;;9.80;4.43;;;;;;;16.87;51.18;96227.59;5042577;28;20095;-33
2023/03/26 08:55:16;;;;;;;10.90;4.72;;;;;;;16.52;51.86;96226.69;5044134;28;20021;-32
2023/03/26 08:58:02;;;;;;;7.85;4.80;;;;;;;16.68;51.37;96231.75;5047380;28;20021;-32
2023/03/26 09:00:31;;;;;;;13.27;4.68;;;;;;;16.62;51.46;96230.88;5048631;28;20044;-32
2023/03/26 09:03:29;;;;;;;8.45;4.35;;;;;;;16.71;51.27;96230.03;5043655;28;20032;-34
2023/03/26 09:06:18;;;;;;;9.40;3.97;;;;;;;16.62;52.10;96224.63;5044059;28;20157;-33
2023/03/26 09:08:46;;;;;;;9.32;4.13;;;;;;;16.80;52.06;96222.50;5044998;28;20052;-32
2023/03/26 09:11:11;;;;;;;11.30;4.25;;;;;;;16.90;52.12;96214.94;5046941;28;20028;-33
2023/03/26 09:13:58;;;;;;;9.27;4.18;;;;;;;16.75;52.51;96214.94;5038965;28;20029;-32
2023/03/26 09:16:52;;;;;;;9.82;4.35;;;;;;;16.73;52.40;96198.22;5044272;28;20484;-32
2023/03/26 09:20:02;;;;;;;10.80;4.07;;;;;;;16.66;51.60;96200.59;5039373;28;20017;-32
2023/03/26 09:22:50;;;;;;;9.38;3.95;;;;;;;16.91;51.34;96188.31;5053284;28;20115;-32
2023/03/26 09:25:43;;;;;;;10.98;4.13;;;;;;;16.69;51.55;96194.16;5014898;28;20669;-32
2023/03/26 09:28:27;;;;;;;9.93;3.17;;;;;;;16.66;51.59;96195.88;5053373;28;20044;-33
2023/03/26 09:31:11;;;;;;;9.30;3.80;;;;;;;16.79;50.69;96190.84;5052556;28;20178;-33
2023/03/26 09:33:45;;;;;;;10.38;4.38;;;;;;;16.56;50.52;96185.44;5053005;28;20028;-33
2023/03/26 09:36:32;;;;;;;9.77;4.53;;;;;;;16.74;50.20;96186.03;5052671;28;20029;-33
2023/03/26 09:39:31;;;;;;;10.57;4.10;;;;;;;16.63;49.54;96185.84;5052721;28;20120;-32
2023/03/26 09:41:56;;;;;;;14.00;6.53;;;;;;;16.66;49.77;96176.69;5049687;28;20516;-34
2023/03/26 09:44:22;;;;;;;9.77;5.40;;;;;;;16.83;49.19;96177.72;5052544;28;20129;-32
2023/03/26 09:47:06;;;;;;;17.25;7.78;;;;;;;16.67;49.75;96174.72;5053133;28;20384;-34
2023/03/26 09:49:47;;;;;;;20.50;10.32;;;;;;;16.97;49.17;96180.91;5036328;28;20195;-33
2023/03/26 09:52:31;;;;;;;23.83;11.68;;;;;;;16.83;49.74;96174.22;5029829;28;20065;-32
2023/03/26 09:55:33;;;;;;;20.55;11.18;;;;;;;16.91;50.14;96178.09;5001749;28;20017;-32
2023/03/26 09:58:36;;;;;;;21.35;11.15;;;;;;;16.69;51.12;96177.75;5003944;28;20105;-34
2023/03/26 10:01:07;;;;;;;26.25;11.82;;;;;;;16.71;51.27;96178.00;5003481;28;20034;-32
2023/03/26 10:03:40;;;;;;;22.15;13.15;;;;;;;16.90;51.02;96182.06;5004154;28;20109;-33
2023/03/26 10:06:11;;;;;;;24.55;12.55;;;;;;;16.98;50.56;96179.69;5001907;28;20462;-32
2023/03/26 10:08:54;;;;;;;24.83;12.32;;;;;;;16.90;50.99;96175.84;5003957;28;20089;-34
2023/03/26 10:11:58;;;;;;;19.53;11.50;;;;;;;16.90;51.47;96170.34;5003450;28;20061;-32
2023/03/26 10:14:31;;;;;;;60.22;30.67;;;;;;;16.84;52.02;96173.00;5013274;28;20272;-33
2023/03/26 10:17:27;;;;;;;42.17;22.95;;;;;;;16.83;52.20;96161.28;5003221;28;20130;-32
2023/03/26 10:20:08;;;;;;;27.73;16.20;;;;;;;16.92;52.14;96165.91;5003898;28;20022;-32
2023/03/26 10:22:37;;;;;;;23.67;13.57;;;;;;;16.99;51.92;96156.53;5000298;28;20030;-33
2023/03/26 10:25:37;;;;;;;19.73;11.50;;;;;;;16.76;52.42;96156.19;5003159;28;20032;-33
2023/03/26 10:28:09;;;;;;;21.58;11.75;;;;;;;16.94;51.77;96163.44;5006589;28;20053;-32
2023/03/26 10:30:54;;;;;;;17.33;9.77;;;;;;;17.04;51.68;96164.88;5000427;28;20026;-32
2023/03/26 10:33:38;;;;;;;17.55;9.85;;;;;;;17.08;51.14;96164.66;5002833;28;20470;-32
2023/03/26 10:36:25;;;;;;;20.50;10.85;;;;;;;17.20;50.59;96166.31;5003612;28;20022;-32
2023/03/26 10:38:51;;;;;;;24.05;12.48;;;;;;;17.03;51.42;96173.56;5006713;28;20076;-32
2023/03/26 10:41:27;;;;;;;18.83;10.30;;;;;;;16.96;51.31;96157.47;5008809;28;20037;-32
2023/03/26 10:44:20;;;;;;;17.00;8.63;;;;;;;16.75;51.85;96149.22;5002413;28;20022;-32
2023/03/26 10:46:59;;;;;;;15.27;7.67;;;;;;;17.02;51.26;96148.13;5000516;28;20041;-32
2023/03/26 10:49:39;;;;;;;13.02;7.65;;;;;;;16.99;51.34;96145.59;5026772;28;20294;-33
2023/03/26 10:52:17;;;;;;;12.13;7.30;;;;;;;17.27;50.79;96138.53;5038731;28;20037;-32
2023/03/26 10:54:56;;;;;;;13.73;7.55;;;;;;;17.07;51.28;96122.03;5034992;28;20416;-32
2023/03/26 10:57:44;;;;;;;14.23;7.75;;;;;;;17.30;51.06;96114.91;5041731;28;20107;-32
2023/03/26 11:00:23;;;;;;;10.13;5.57;;;;;;;17.15;50.41;96114.94;5040715;28;20033;-32
2023/03/26 11:03:28;;;;;;;13.45;4.68;;;;;;;16.96;50.94;96114.41;5039774;28;20025;-32
2023/03/26 11:06:07;;;;;;;9.13;4.20;;;;;;;17.06;50.75;96107.59;5038675;28;20389;-32
2023/03/26 11:08:33;;;;;;;10.10;4.07;;;;;;;16.89;50.98;96120.28;5037848;28;20028;-32
2023/03/26 11:11:23;;;;;;;7.93;4.05;;;;;;;16.75;51.52;96104.63;5048631;28;20021;-32
2023/03/26 11:14:09;;;;;;;7.60;3.42;;;;;;;16.89;51.18;96106.59;5040660;28;20036;-32
2023/03/26 11:16:58;;;;;;;6.68;2.90;;;;;;;17.21;50.70;96097.34;5041459;28;20567;-32
2023/03/26 11:19:49;;;;;;;10.38;4.10;;;;;;;17.26;51.02;96098.66;5039787;28;20119;-32
2023/03/26 11:22:29;;;;;;;8.05;3.83;;;;;;;17.07;51.99;96083.69;5037100;28;20460;-32
2023/03/26 11:25:13;;;;;;;12.10;4.07;;;;;;;17.18;51.77;96086.59;5042564;28;20060;-32
2023/03/26 11:28:04;;;;;;;9.10;3.58;;;;;;;17.05;52.26;96077.94;5038080;28;20377;-33
2023/03/26 11:30:35;;;;;;;10.57;3.55;;;;;;;17.18;52.04;96067.41;5040923;28;20029;-32
2023/03/26 11:33:06;;;;;;;13.70;3.45;;;;;;;17.28;51.90;96055.09;5041497;28;20411;-32
2023/03/26 11:35:31;;;;;;;10.38;3.30;;;;;;;17.31;51.80;96056.84;5034596;28;20032;-32
2023/03/26 11:38:04;;;;;;;10.45;3.42;;;;;;;17.21;51.90;96044.50;5033894;28;20029;-32
2023/03/26 11:40:40;;;;;;;9.75;3.97;;;;;;;17.23;52.08;96040.06;5041153;28;20484;-32
2023/03/26 11:43:12;;;;;;;10.55;3.28;;;;;;;17.07;52.33;96037.09;5048487;28;20434;-32
2023/03/26 11:45:41;;;;;;;8.10;2.90;;;;;;;17.36;51.49;96036.97;5044721;28;20028;-33
2023/03/26 11:48:31;;;;;;;8.73;3.22;;;;;;;17.38;51.37;96048.22;5036530;28;20100;-32
2023/03/26 11:51:20;;;;;;;14.63;3.17;;;;;;;17.23;51.78;96031.84;5041588;28;20013;-32
2023/03/26 11:53:45;;;;;;;11.10;2.65;;;;;;;17.42;50.83;96029.59;5037196;28;20036;-32
2023/03/26 11:56:43;;;;;;;5.38;2.20;;;;;;;17.53;50.58;96021.50;5043877;28;20020;-32